createdAt,value
2023-03-17T00:00:27.901Z,49.70
2023-03-17T00:02:52.100Z,50.85
2023-03-17T00:05:25.668Z,50.19
2023-03-17T00:07:50.294Z,51.13
2023-03-17T00:10:20.566Z,50.79
2023-03-17T00:12:44.954Z,50.47
2023-03-17T00:15:11.009Z,50.96
2023-03-17T00:17:35.112Z,51.21
2023-03-17T00:19:58.742Z,51.26
2023-03-17T00:22:23.723Z,50.50
2023-03-17T00:24:47.214Z,51.04
2023-03-17T00:27:13.672Z,50.98
2023-03-17T00:29:37.172Z,51.48
2023-03-17T00:32:00.757Z,50.98
2023-03-17T00:34:24.475Z,51.65
2023-03-17T00:36:50.007Z,51.86
2023-03-17T00:39:17.341Z,52.36
2023-03-17T00:41:40.992Z,51.69
2023-03-17T00:44:04.898Z,51.89
2023-03-17T00:46:35.946Z,51.55
2023-03-17T00:48:59.787Z,51.95
2023-03-17T00:51:24.206Z,51.95
2023-03-17T00:53:48.058Z,51.85
2023-03-17T00:56:18.231Z,51.95
2023-03-17T00:58:42.110Z,52.35
2023-03-17T01:01:06.048Z,52.52
2023-03-17T01:03:31.113Z,52.27
2023-03-17T01:05:57.027Z,52.32
2023-03-17T01:08:20.860Z,52.97
2023-03-17T01:10:44.411Z,52.77
2023-03-17T01:13:12.228Z,51.87
2023-03-17T01:15:37.978Z,52.43
2023-03-17T01:18:02.855Z,52.70
2023-03-17T01:20:29.010Z,52.36
2023-03-17T01:22:52.769Z,52.85
2023-03-17T01:25:17.993Z,53.16
2023-03-17T01:27:43.273Z,52.40
2023-03-17T01:30:24.123Z,52.34
2023-03-17T01:32:48.015Z,52.22
2023-03-17T01:35:11.751Z,52.52
2023-03-17T01:37:35.386Z,52.09
2023-03-17T01:39:59.617Z,52.49
2023-03-17T01:42:23.238Z,52.30
2023-03-17T01:45:02.367Z,52.38
2023-03-17T01:47:28.977Z,51.97
2023-03-17T01:49:53.033Z,52.43
2023-03-17T01:52:19.340Z,52.32
2023-03-17T01:54:48.148Z,52.36
2023-03-17T01:57:18.583Z,51.73
2023-03-17T01:59:48.218Z,51.79
2023-03-17T02:02:18.885Z,51.96
2023-03-17T02:04:44.034Z,52.26
2023-03-17T02:07:07.948Z,52.61
2023-03-17T02:09:35.385Z,52.41
2023-03-17T02:12:02.275Z,51.85
2023-03-17T02:14:25.851Z,52.81
2023-03-17T02:16:49.929Z,52.21
2023-03-17T02:19:13.942Z,52.81
2023-03-17T02:21:45.272Z,52.71
2023-03-17T02:24:18.525Z,53.58
2023-03-17T02:26:42.993Z,52.83
2023-03-17T02:29:06.945Z,52.76
2023-03-17T02:31:30.524Z,53.02
2023-03-17T02:33:54.658Z,53.60
2023-03-17T02:36:18.270Z,53.46
2023-03-17T02:38:44.915Z,52.93
2023-03-17T02:41:09.797Z,53.17
2023-03-17T02:43:33.374Z,53.54
2023-03-17T02:45:57.003Z,52.78
2023-03-17T02:48:22.837Z,53.36
2023-03-17T02:50:46.955Z,53.20
2023-03-17T02:53:10.590Z,52.93
2023-03-17T02:55:35.573Z,53.38
2023-03-17T02:57:59.153Z,53.42
2023-03-17T03:00:24.218Z,53.99
2023-03-17T03:02:47.866Z,53.00
2023-03-17T03:05:11.716Z,52.62
2023-03-17T03:07:35.295Z,52.76
2023-03-17T03:09:58.905Z,52.58
2023-03-17T03:12:23.938Z,53.17
2023-03-17T03:14:47.686Z,52.19
2023-03-17T03:17:11.549Z,51.91
2023-03-17T03:19:35.150Z,52.57
2023-03-17T03:21:58.717Z,52.07
2023-03-17T03:24:22.945Z,51.56
2023-03-17T03:26:46.530Z,51.62
2023-03-17T03:29:11.708Z,51.73
2023-03-17T03:31:35.250Z,51.54
2023-03-17T03:33:58.824Z,50.99
2023-03-17T03:36:23.390Z,51.65
2023-03-17T03:38:47.180Z,51.73
2023-03-17T03:41:11.247Z,52.46
2023-03-17T03:43:34.923Z,51.71
2023-03-17T03:45:59.913Z,51.38
2023-03-17T03:48:24.195Z,52.34
2023-03-17T03:50:47.808Z,51.13
2023-03-17T03:53:11.427Z,51.25
2023-03-17T03:55:34.955Z,51.47
2023-03-17T03:57:58.568Z,51.64
2023-03-17T04:00:22.902Z,52.14
2023-03-17T04:02:47.921Z,51.46
2023-03-17T04:05:13.001Z,51.23
2023-03-17T04:07:36.854Z,52.45
2023-03-17T04:10:00.913Z,51.57
2023-03-17T04:12:24.514Z,52.10
2023-03-17T04:14:48.006Z,51.73
2023-03-17T04:17:11.865Z,51.99
2023-03-17T04:19:36.816Z,51.62
2023-03-17T04:22:00.401Z,51.49
2023-03-17T04:24:23.949Z,51.57
2023-03-17T04:26:47.530Z,52.16
2023-03-17T04:29:15.629Z,52.16
2023-03-17T04:31:39.945Z,51.29
2023-03-17T04:34:03.563Z,51.20
2023-03-17T04:36:28.679Z,52.18
2023-03-17T04:38:52.367Z,51.08
2023-03-17T04:41:15.991Z,51.90
2023-03-17T04:43:39.519Z,51.68
2023-03-17T04:46:03.184Z,52.14
2023-03-17T04:48:27.004Z,51.90
2023-03-17T04:50:51.443Z,51.43
2023-03-17T04:53:16.456Z,51.72
2023-03-17T04:55:40.341Z,51.21
2023-03-17T04:58:03.881Z,51.10
2023-03-17T05:00:28.035Z,51.51
2023-03-17T05:02:51.791Z,50.90
2023-03-17T05:05:15.568Z,52.14
2023-03-17T05:07:39.111Z,50.96
2023-03-17T05:10:04.225Z,51.56
2023-03-17T05:12:27.736Z,51.27
2023-03-17T05:14:51.428Z,51.76
2023-03-17T05:17:15.062Z,51.39
2023-03-17T05:19:38.695Z,51.69
2023-03-17T05:22:02.222Z,51.40
2023-03-17T05:24:26.013Z,51.34
2023-03-17T05:26:50.910Z,50.82
2023-03-17T05:29:14.611Z,51.11
2023-03-17T05:31:38.589Z,51.12
2023-03-17T05:34:02.404Z,51.42
2023-03-17T05:36:26.171Z,51.13
2023-03-17T05:38:49.781Z,51.87
2023-03-17T05:41:13.318Z,50.80
2023-03-17T05:43:38.517Z,51.04
2023-03-17T05:46:02.107Z,51.68
2023-03-17T05:48:26.504Z,51.45
2023-03-17T05:50:50.078Z,50.80
2023-03-17T05:53:13.778Z,50.89
2023-03-17T05:55:37.292Z,50.70
2023-03-17T05:58:04.380Z,50.67
2023-03-17T06:00:29.687Z,50.09
2023-03-17T06:02:53.454Z,49.69
2023-03-17T06:05:17.178Z,50.82
2023-03-17T06:07:53.137Z,49.74
2023-03-17T06:10:19.635Z,49.57
2023-03-17T06:12:43.197Z,49.80
2023-03-17T06:15:09.775Z,50.88
2023-03-17T06:17:34.668Z,50.36
2023-03-17T06:19:58.349Z,50.50
2023-03-17T06:22:21.867Z,49.54
2023-03-17T06:24:45.737Z,48.94
2023-03-17T06:27:10.913Z,48.64
2023-03-17T06:29:34.511Z,49.27
2023-03-17T06:32:01.510Z,49.65
2023-03-17T06:34:34.399Z,49.23
2023-03-17T06:36:58.019Z,49.97
2023-03-17T06:39:21.625Z,48.24
2023-03-17T06:41:45.176Z,48.22
2023-03-17T06:44:10.098Z,48.64
2023-03-17T06:46:33.938Z,49.14
2023-03-17T06:48:57.636Z,49.76
2023-03-17T06:51:22.586Z,48.42
2023-03-17T06:53:46.249Z,48.13
2023-03-17T06:56:23.467Z,48.70
2023-03-17T06:58:51.866Z,47.59
2023-03-17T07:01:15.629Z,47.43
2023-03-17T07:03:39.542Z,48.08
2023-03-17T07:06:03.193Z,47.26
2023-03-17T07:08:30.856Z,46.45
2023-03-17T07:10:57.301Z,47.14
2023-03-17T07:13:21.004Z,47.13
2023-03-17T07:15:46.794Z,47.12
2023-03-17T07:18:11.231Z,46.54
2023-03-17T07:20:34.767Z,47.35
2023-03-17T07:22:58.572Z,46.69
2023-03-17T07:25:23.859Z,47.36
2023-03-17T07:27:47.580Z,46.38
2023-03-17T07:30:13.340Z,45.53
2023-03-17T07:32:37.819Z,45.75
2023-03-17T07:35:01.427Z,46.01
2023-03-17T07:37:25.223Z,45.70
2023-03-17T07:39:48.993Z,45.16
2023-03-17T07:42:17.403Z,45.48
2023-03-17T07:44:41.586Z,44.59
2023-03-17T07:47:05.434Z,45.58
2023-03-17T07:49:40.746Z,44.37
2023-03-17T07:52:04.827Z,45.50
2023-03-17T07:54:29.241Z,43.70
2023-03-17T07:56:52.912Z,44.01
2023-03-17T07:59:18.330Z,44.36
2023-03-17T08:01:41.969Z,43.80
2023-03-17T08:04:06.038Z,43.54
2023-03-17T08:06:30.133Z,43.07
2023-03-17T08:08:54.070Z,42.61
2023-03-17T08:11:18.932Z,42.29
2023-03-17T08:13:42.570Z,43.36
2023-03-17T08:16:08.512Z,41.79
2023-03-17T08:18:32.189Z,42.15
2023-03-17T08:20:55.817Z,42.23
2023-03-17T08:23:19.443Z,42.19
2023-03-17T08:25:43.104Z,42.42
2023-03-17T08:28:07.037Z,42.99
2023-03-17T08:30:33.250Z,43.75
2023-03-17T08:32:59.209Z,42.38
2023-03-17T08:35:23.098Z,42.26
2023-03-17T08:37:47.624Z,41.80
2023-03-17T08:40:13.498Z,41.81
2023-03-17T08:42:37.705Z,42.27
2023-03-17T08:45:01.340Z,42.89
2023-03-17T08:47:25.275Z,41.82
2023-03-17T08:49:50.406Z,42.87
2023-03-17T08:52:14.799Z,43.14
2023-03-17T08:54:38.652Z,43.04
2023-03-17T08:57:02.163Z,42.42
2023-03-17T08:59:25.752Z,44.21
2023-03-17T09:01:49.614Z,42.29
2023-03-17T09:04:13.273Z,42.29
2023-03-17T09:06:40.798Z,42.74
2023-03-17T09:09:06.886Z,42.38
2023-03-17T09:11:33.742Z,41.85
2023-03-17T09:13:57.857Z,41.40
2023-03-17T09:16:23.181Z,42.99
2023-03-17T09:18:47.921Z,41.86
2023-03-17T09:21:12.944Z,42.41
2023-03-17T09:23:38.060Z,41.24
2023-03-17T09:26:03.284Z,40.70
2023-03-17T09:28:27.265Z,41.97
2023-03-17T09:30:50.987Z,42.00
2023-03-17T09:33:15.811Z,41.61
2023-03-17T09:35:39.933Z,41.51
2023-03-17T09:38:03.855Z,40.90
2023-03-17T09:40:35.892Z,40.80
2023-03-17T09:43:11.296Z,40.09
2023-03-17T09:45:38.870Z,41.23
2023-03-17T09:48:40.318Z,40.96
2023-03-17T09:51:06.758Z,39.46
2023-03-17T09:53:36.113Z,38.83
2023-03-17T09:56:05.149Z,39.82
2023-03-17T09:58:33.437Z,37.34
2023-03-17T10:00:56.998Z,41.13
2023-03-17T10:03:21.035Z,36.92
2023-03-17T10:05:44.919Z,36.38
2023-03-17T10:08:29.938Z,38.58
2023-03-17T10:10:58.912Z,36.45
2023-03-17T10:13:40.143Z,35.41
2023-03-17T10:16:09.817Z,35.59
2023-03-17T10:18:42.239Z,35.44
2023-03-17T10:21:08.034Z,35.57
2023-03-17T10:23:35.771Z,34.94
2023-03-17T10:26:05.184Z,34.89
2023-03-17T10:28:32.987Z,35.93
2023-03-17T10:30:59.033Z,34.62
2023-03-17T10:33:23.278Z,35.33
2023-03-17T10:35:47.678Z,33.09
2023-03-17T10:38:18.765Z,33.69
2023-03-17T10:40:42.764Z,34.51
2023-03-17T10:43:08.843Z,34.40
2023-03-17T10:45:37.788Z,34.18
2023-03-17T10:48:04.458Z,34.59
2023-03-17T10:50:31.997Z,34.66
2023-03-17T10:53:00.924Z,34.85
2023-03-17T10:55:29.370Z,34.51
2023-03-17T10:57:56.429Z,34.51
2023-03-17T11:00:22.341Z,35.59
2023-03-17T11:02:53.387Z,34.75
2023-03-17T11:05:24.014Z,34.92
2023-03-17T11:07:47.813Z,35.15
2023-03-17T11:10:21.231Z,34.51
2023-03-17T11:12:45.438Z,35.29
2023-03-17T11:15:16.515Z,34.30
2023-03-17T11:17:49.032Z,36.65
2023-03-17T11:20:29.219Z,34.90
2023-03-17T11:23:02.287Z,34.42
2023-03-17T11:25:27.933Z,34.09
2023-03-17T11:27:55.792Z,34.26
2023-03-17T11:30:30.755Z,34.36
2023-03-17T11:33:00.361Z,34.75
2023-03-17T11:35:51.466Z,33.96
2023-03-17T11:38:24.463Z,33.21
2023-03-17T11:41:18.200Z,35.49
2023-03-17T11:43:54.560Z,34.41
2023-03-17T11:46:23.942Z,34.51
2023-03-17T11:48:57.675Z,35.96
2023-03-17T11:51:30.495Z,33.04
2023-03-17T11:54:09.537Z,32.47
2023-03-17T11:56:41.665Z,34.02
2023-03-17T11:59:14.268Z,33.64
2023-03-17T12:01:54.817Z,33.78
2023-03-17T12:04:30.208Z,33.28
2023-03-17T12:07:01.329Z,32.79
2023-03-17T12:09:31.986Z,34.15
2023-03-17T12:11:57.441Z,32.60
2023-03-17T12:14:29.290Z,32.03
2023-03-17T12:17:02.414Z,32.84
2023-03-17T12:19:36.917Z,32.49
2023-03-17T12:22:06.735Z,32.83
2023-03-17T12:24:38.348Z,34.80
2023-03-17T12:27:08.605Z,32.64
2023-03-17T12:29:47.282Z,33.67
2023-03-17T12:32:20.267Z,34.55
2023-03-17T12:34:52.476Z,33.74
2023-03-17T12:37:17.528Z,33.13
2023-03-17T12:39:47.914Z,34.67
2023-03-17T12:42:34.370Z,34.32
2023-03-17T12:45:25.166Z,33.36
2023-03-17T12:48:08.345Z,34.21
2023-03-17T12:51:11.610Z,32.83
2023-03-17T12:53:38.556Z,34.33
2023-03-17T12:56:11.768Z,34.50
2023-03-17T12:58:39.581Z,34.07
2023-03-17T13:01:18.424Z,33.49
2023-03-17T13:03:59.314Z,33.44
2023-03-17T13:06:25.869Z,34.52
2023-03-17T13:08:53.282Z,33.33
2023-03-17T13:11:20.420Z,33.18
2023-03-17T13:13:49.421Z,33.19
2023-03-17T13:16:39.374Z,34.22
2023-03-17T13:19:24.909Z,33.30
2023-03-17T13:21:59.065Z,34.24
2023-03-17T13:24:47.340Z,33.84
2023-03-17T13:27:17.621Z,33.64
2023-03-17T13:29:48.803Z,33.31
2023-03-17T13:32:38.175Z,34.15
2023-03-17T13:35:38.681Z,33.31
2023-03-17T13:39:15.026Z,33.24
2023-03-17T13:42:05.541Z,34.35
2023-03-17T13:45:19.930Z,33.12
2023-03-17T13:47:45.945Z,33.67
2023-03-17T13:50:14.870Z,33.53
2023-03-17T13:52:47.104Z,33.92
2023-03-17T13:55:37.100Z,34.40
2023-03-17T13:58:24.305Z,34.27
2023-03-17T14:00:50.711Z,33.69
2023-03-17T14:03:19.547Z,34.63
2023-03-17T14:05:48.267Z,33.77
2023-03-17T14:08:18.466Z,33.81
2023-03-17T14:10:44.797Z,34.28
2023-03-17T14:13:20.058Z,35.23
2023-03-17T14:15:51.707Z,34.32
2023-03-17T14:18:19.721Z,34.20
2023-03-17T14:20:54.359Z,34.08
2023-03-17T14:23:19.742Z,34.63
2023-03-17T14:25:46.040Z,34.25
2023-03-17T14:28:16.099Z,34.56
2023-03-17T14:30:39.954Z,33.87
2023-03-17T14:33:07.124Z,35.10
2023-03-17T14:35:36.300Z,34.42
2023-03-17T14:38:01.061Z,34.17
2023-03-17T14:40:28.632Z,34.08
2023-03-17T14:42:53.777Z,34.64
2023-03-17T14:45:32.781Z,34.15
2023-03-17T14:47:57.042Z,34.43
2023-03-17T14:50:27.856Z,34.64
2023-03-17T14:52:52.070Z,34.87
2023-03-17T14:55:17.597Z,34.96
2023-03-17T14:57:41.393Z,35.10
2023-03-17T15:00:35.029Z,34.90
2023-03-17T15:03:02.006Z,35.54
2023-03-17T15:05:30.806Z,34.84
2023-03-17T15:07:55.006Z,36.26
2023-03-17T15:10:20.913Z,36.50
2023-03-17T15:12:46.716Z,35.28
2023-03-17T15:15:24.070Z,35.14
2023-03-17T15:17:52.372Z,35.79
2023-03-17T15:20:18.826Z,35.89
2023-03-17T15:22:45.042Z,36.44
2023-03-17T15:25:21.636Z,35.07
2023-03-17T15:27:46.210Z,35.84
2023-03-17T15:30:13.588Z,35.59
2023-03-17T15:32:37.626Z,35.42
2023-03-17T15:35:01.180Z,36.56
2023-03-17T15:37:27.350Z,35.33
2023-03-17T15:39:52.885Z,35.46
2023-03-17T15:42:21.147Z,35.08
2023-03-17T15:44:45.123Z,35.98
2023-03-17T15:47:15.920Z,35.05
2023-03-17T15:49:39.617Z,34.96
2023-03-17T15:52:03.222Z,35.41
2023-03-17T15:54:26.818Z,35.61
2023-03-17T15:56:50.560Z,35.52
2023-03-17T15:59:14.191Z,34.95
2023-03-17T16:01:39.083Z,36.02
2023-03-17T16:04:04.807Z,36.07
2023-03-17T16:06:28.435Z,35.21
2023-03-17T16:08:52.142Z,35.01
2023-03-17T16:11:19.151Z,34.83
2023-03-17T16:13:43.032Z,35.59
2023-03-17T16:16:07.061Z,35.06
2023-03-17T16:18:35.140Z,35.23
2023-03-17T16:21:00.252Z,35.02
2023-03-17T16:23:27.139Z,34.77
2023-03-17T16:25:52.636Z,34.78
2023-03-17T16:28:20.305Z,34.57
2023-03-17T16:30:44.069Z,35.03
2023-03-17T16:33:17.551Z,35.15
2023-03-17T16:35:41.146Z,35.38
2023-03-17T16:38:11.875Z,35.52
2023-03-17T16:40:38.476Z,34.64
2023-03-17T16:43:03.954Z,34.80
2023-03-17T16:45:33.007Z,35.19
2023-03-17T16:47:58.106Z,35.22
2023-03-17T16:50:24.731Z,35.61
2023-03-17T16:52:48.600Z,35.53
2023-03-17T16:55:17.975Z,34.76
2023-03-17T16:57:43.673Z,35.12
2023-03-17T17:00:10.012Z,35.73
2023-03-17T17:02:33.831Z,36.05
2023-03-17T17:04:57.593Z,35.42
2023-03-17T17:07:21.323Z,35.81
2023-03-17T17:09:44.973Z,35.43
2023-03-17T17:12:11.205Z,36.24
2023-03-17T17:14:35.057Z,35.31
2023-03-17T17:16:58.685Z,35.54
2023-03-17T17:19:22.372Z,36.01
2023-03-17T17:21:46.516Z,36.18
2023-03-17T17:24:13.223Z,35.96
2023-03-17T17:26:36.833Z,36.09
2023-03-17T17:29:02.071Z,36.91
2023-03-17T17:31:26.653Z,37.08
2023-03-17T17:33:50.405Z,36.30
2023-03-17T17:36:17.077Z,36.04
2023-03-17T17:38:40.865Z,36.13
2023-03-17T17:41:05.855Z,36.98
2023-03-17T17:43:29.725Z,36.18
2023-03-17T17:45:55.074Z,37.38
2023-03-17T17:48:22.530Z,37.42
2023-03-17T17:50:46.695Z,36.61
2023-03-17T17:53:12.385Z,37.18
2023-03-17T17:55:36.232Z,37.58
2023-03-17T17:58:00.216Z,37.17
2023-03-17T18:00:25.725Z,36.45
2023-03-17T18:02:50.766Z,37.02
2023-03-17T18:05:14.939Z,36.62
2023-03-17T18:07:38.564Z,36.95
2023-03-17T18:10:02.283Z,37.80
2023-03-17T18:12:26.004Z,37.08
2023-03-17T18:14:49.754Z,37.31
2023-03-17T18:17:13.614Z,38.41
2023-03-17T18:19:38.632Z,37.12
2023-03-17T18:22:02.427Z,36.71
2023-03-17T18:24:26.496Z,37.48
2023-03-17T18:26:50.909Z,37.62
2023-03-17T18:29:14.572Z,37.55
2023-03-17T18:31:43.458Z,37.72
2023-03-17T18:34:11.570Z,37.39
2023-03-17T18:36:37.235Z,38.41
2023-03-17T18:39:00.914Z,38.32
2023-03-17T18:41:24.791Z,38.57
2023-03-17T18:43:48.428Z,37.55
2023-03-17T18:46:12.782Z,38.13
2023-03-17T18:48:36.517Z,38.22
2023-03-17T18:51:00.264Z,38.47
2023-03-17T18:53:25.344Z,37.89
2023-03-17T18:55:48.980Z,39.00
2023-03-17T18:58:12.827Z,39.75
2023-03-17T19:00:36.528Z,38.77
2023-03-17T19:03:00.222Z,38.83
2023-03-17T19:05:24.560Z,38.43
2023-03-17T19:07:48.224Z,38.21
2023-03-17T19:10:15.166Z,37.98
2023-03-17T19:12:38.820Z,38.65
2023-03-17T19:15:03.019Z,38.52
2023-03-17T19:17:26.674Z,38.70
2023-03-17T19:19:52.208Z,38.93
2023-03-17T19:22:16.110Z,38.96
2023-03-17T19:24:41.184Z,39.06
2023-03-17T19:27:06.516Z,38.66
2023-03-17T19:29:30.459Z,39.44
2023-03-17T19:31:54.098Z,39.16
2023-03-17T19:34:17.867Z,39.99
2023-03-17T19:36:46.423Z,39.67
2023-03-17T19:39:11.933Z,39.65
2023-03-17T19:41:35.807Z,39.34
2023-03-17T19:44:01.488Z,39.86
2023-03-17T19:46:25.125Z,39.26
2023-03-17T19:48:48.883Z,39.83
2023-03-17T19:51:12.841Z,40.17
2023-03-17T19:53:37.458Z,39.94
2023-03-17T19:56:01.172Z,40.03
2023-03-17T19:58:24.856Z,39.89
2023-03-17T20:00:49.847Z,40.57
2023-03-17T20:03:14.900Z,40.40
2023-03-17T20:05:38.748Z,40.52
2023-03-17T20:08:02.729Z,40.79
2023-03-17T20:10:26.600Z,41.04
2023-03-17T20:12:50.300Z,40.77
2023-03-17T20:15:14.132Z,41.68
2023-03-17T20:17:39.775Z,42.12
2023-03-17T20:20:03.777Z,41.37
2023-03-17T20:22:27.734Z,41.34
2023-03-17T20:24:51.695Z,41.06
2023-03-17T20:27:15.972Z,41.73
2023-03-17T20:29:39.645Z,41.87
2023-03-17T20:32:03.493Z,41.81
2023-03-17T20:34:28.753Z,42.17
2023-03-17T20:36:52.800Z,42.15
2023-03-17T20:39:19.978Z,42.71
2023-03-17T20:41:43.700Z,42.59
2023-03-17T20:44:08.089Z,42.89
2023-03-17T20:46:31.952Z,42.22
2023-03-17T20:48:58.792Z,42.86
2023-03-17T20:51:23.977Z,43.19
2023-03-17T20:53:49.250Z,43.15
2023-03-17T20:56:16.543Z,43.12
2023-03-17T20:58:40.259Z,43.76
2023-03-17T21:01:04.042Z,43.58
2023-03-17T21:03:27.644Z,43.31
2023-03-17T21:05:51.593Z,43.70
2023-03-17T21:08:17.187Z,43.54
2023-03-17T21:10:40.957Z,44.67
2023-03-17T21:13:04.548Z,44.24
2023-03-17T21:15:28.872Z,44.82
2023-03-17T21:17:53.761Z,44.42
2023-03-17T21:20:18.266Z,44.23
2023-03-17T21:22:42.143Z,44.37
2023-03-17T21:25:09.225Z,44.84
2023-03-17T21:27:33.918Z,44.84
2023-03-17T21:29:57.621Z,45.16
2023-03-17T21:32:21.284Z,45.15
2023-03-17T21:34:45.125Z,45.26
2023-03-17T21:37:08.782Z,45.69
2023-03-17T21:39:32.788Z,46.38
2023-03-17T21:41:58.410Z,46.70
2023-03-17T21:44:22.624Z,46.16
2023-03-17T21:46:47.965Z,46.19
2023-03-17T21:49:11.904Z,45.82
2023-03-17T21:51:36.158Z,46.01
2023-03-17T21:53:59.844Z,46.12
2023-03-17T21:56:23.529Z,46.41
2023-03-17T21:58:49.273Z,46.65
2023-03-17T22:01:14.341Z,46.20
2023-03-17T22:03:39.595Z,47.66
2023-03-17T22:06:05.330Z,46.79
2023-03-17T22:08:29.610Z,47.32
2023-03-17T22:10:53.375Z,46.87
2023-03-17T22:13:17.331Z,46.84
2023-03-17T22:15:42.813Z,47.21
2023-03-17T22:18:06.797Z,46.61
2023-03-17T22:20:31.662Z,47.20
2023-03-17T22:22:55.443Z,47.17
2023-03-17T22:25:20.187Z,46.77
2023-03-17T22:27:44.872Z,47.44
2023-03-17T22:30:10.911Z,48.87
2023-03-17T22:32:36.161Z,47.56
2023-03-17T22:35:00.229Z,47.74
2023-03-17T22:37:24.712Z,47.99
2023-03-17T22:39:48.378Z,47.86
2023-03-17T22:42:12.229Z,47.32
2023-03-17T22:44:35.848Z,47.08
2023-03-17T22:46:59.578Z,47.86
2023-03-17T22:49:25.084Z,47.79
2023-03-17T22:51:50.077Z,47.71
2023-03-17T22:54:13.764Z,48.24
2023-03-17T22:56:39.092Z,48.03
2023-03-17T22:59:03.052Z,48.14
2023-03-17T23:01:27.333Z,48.41
2023-03-17T23:03:51.377Z,49.07
2023-03-17T23:06:17.780Z,48.24
2023-03-17T23:08:43.275Z,48.27
2023-03-17T23:11:11.741Z,48.51
2023-03-17T23:13:36.307Z,47.96
2023-03-17T23:15:59.977Z,48.24
2023-03-17T23:18:23.925Z,48.42
2023-03-17T23:20:47.793Z,48.29
2023-03-17T23:23:14.127Z,48.38
2023-03-17T23:25:39.115Z,48.17
2023-03-17T23:28:02.765Z,48.54
2023-03-17T23:30:26.816Z,48.79
2023-03-17T23:32:50.491Z,47.48
2023-03-17T23:35:15.428Z,48.14
2023-03-17T23:37:39.076Z,47.88
2023-03-17T23:40:06.439Z,47.71
2023-03-17T23:42:30.374Z,48.31
2023-03-17T23:44:54.360Z,47.38
2023-03-17T23:47:18.247Z,48.14
2023-03-17T23:49:43.041Z,48.00
2023-03-17T23:52:07.110Z,47.37
2023-03-17T23:54:31.635Z,47.32
2023-03-17T23:56:56.615Z,47.44
2023-03-17T23:59:20.301Z,47.37
